sensor_id;sensor_type;location;lat;lon;timestamp;P1;durP1;ratioP1;P2;durP2;ratioP2
8478;SDS011;4276;49.354;6.804;2023-03-23T00:00:03;1.40;;;1.30;;
8478;SDS011;4276;49.354;6.804;2023-03-23T00:02:30;1.75;;;1.65;;
8478;SDS011;4276;49.354;6.804;2023-03-23T00:05:06;1.40;;;1.30;;
8478;SDS011;4276;49.354;6.804;2023-03-23T00:07:32;1.10;;;1.10;;
8478;SDS011;4276;49.354;6.804;2023-03-23T00:09:58;2.45;;;1.45;;
8478;SDS011;4276;49.354;6.804;2023-03-23T00:12:28;1.50;;;1.15;;
8478;SDS011;4276;49.354;6.804;2023-03-23T00:15:02;2.45;;;1.55;;
8478;SDS011;4276;49.354;6.804;2023-03-23T00:17:28;1.65;;;1.55;;
8478;SDS011;4276;49.354;6.804;2023-03-23T00:19:54;1.70;;;1.60;;
8478;SDS011;4276;49.354;6.804;2023-03-23T00:22:20;2.25;;;1.60;;
8478;SDS011;4276;49.354;6.804;2023-03-23T00:24:47;1.67;;;1.58;;
8478;SDS011;4276;49.354;6.804;2023-03-23T00:27:15;1.50;;;1.40;;
8478;SDS011;4276;49.354;6.804;2023-03-23T00:29:41;1.88;;;1.75;;
8478;SDS011;4276;49.354;6.804;2023-03-23T00:32:07;1.60;;;1.50;;
8478;SDS011;4276;49.354;6.804;2023-03-23T00:34:38;1.52;;;1.42;;
8478;SDS011;4276;49.354;6.804;2023-03-23T00:37:05;1.83;;;1.73;;
8478;SDS011;4276;49.354;6.804;2023-03-23T00:39:33;2.00;;;1.90;;
8478;SDS011;4276;49.354;6.804;2023-03-23T00:42:01;2.40;;;2.00;;
8478;SDS011;4276;49.354;6.804;2023-03-23T00:44:28;1.70;;;1.60;;
8478;SDS011;4276;49.354;6.804;2023-03-23T00:46:55;1.77;;;1.40;;
8478;SDS011;4276;49.354;6.804;2023-03-23T00:49:22;1.40;;;1.30;;
8478;SDS011;4276;49.354;6.804;2023-03-23T00:51:51;1.40;;;1.30;;
8478;SDS011;4276;49.354;6.804;2023-03-23T00:54:18;1.95;;;1.48;;
8478;SDS011;4276;49.354;6.804;2023-03-23T00:56:44;1.60;;;1.20;;
8478;SDS011;4276;49.354;6.804;2023-03-23T00:59:10;1.45;;;1.35;;
8478;SDS011;4276;49.354;6.804;2023-03-23T01:01:35;1.75;;;1.50;;
8478;SDS011;4276;49.354;6.804;2023-03-23T01:04:01;1.60;;;1.20;;
8478;SDS011;4276;49.354;6.804;2023-03-23T01:06:36;1.60;;;1.48;;
8478;SDS011;4276;49.354;6.804;2023-03-23T01:09:05;1.40;;;1.40;;
8478;SDS011;4276;49.354;6.804;2023-03-23T01:11:32;1.27;;;1.25;;
8478;SDS011;4276;49.354;6.804;2023-03-23T01:13:57;1.58;;;1.48;;
8478;SDS011;4276;49.354;6.804;2023-03-23T01:16:23;1.75;;;1.65;;
8478;SDS011;4276;49.354;6.804;2023-03-23T01:18:48;1.58;;;1.48;;
8478;SDS011;4276;49.354;6.804;2023-03-23T01:21:15;1.80;;;1.70;;
8478;SDS011;4276;49.354;6.804;2023-03-23T01:23:42;2.28;;;1.80;;
8478;SDS011;4276;49.354;6.804;2023-03-23T01:26:16;2.00;;;1.80;;
8478;SDS011;4276;49.354;6.804;2023-03-23T01:28:43;2.00;;;1.75;;
8478;SDS011;4276;49.354;6.804;2023-03-23T01:31:10;1.90;;;1.80;;
8478;SDS011;4276;49.354;6.804;2023-03-23T01:33:37;1.83;;;1.73;;
8478;SDS011;4276;49.354;6.804;2023-03-23T01:36:09;1.67;;;1.58;;
8478;SDS011;4276;49.354;6.804;2023-03-23T01:38:40;1.70;;;1.60;;
8478;SDS011;4276;49.354;6.804;2023-03-23T01:41:07;2.13;;;1.63;;
8478;SDS011;4276;49.354;6.804;2023-03-23T01:43:32;1.77;;;1.67;;
8478;SDS011;4276;49.354;6.804;2023-03-23T01:45:58;1.50;;;1.40;;
8478;SDS011;4276;49.354;6.804;2023-03-23T01:48:24;2.08;;;1.70;;
8478;SDS011;4276;49.354;6.804;2023-03-23T01:53:39;1.80;;;1.70;;
8478;SDS011;4276;49.354;6.804;2023-03-23T01:56:16;2.00;;;1.55;;
8478;SDS011;4276;49.354;6.804;2023-03-23T01:58:45;2.05;;;1.95;;
8478;SDS011;4276;49.354;6.804;2023-03-23T02:01:11;1.65;;;1.55;;
8478;SDS011;4276;49.354;6.804;2023-03-23T02:03:42;1.80;;;1.70;;
8478;SDS011;4276;49.354;6.804;2023-03-23T02:06:10;1.58;;;1.40;;
8478;SDS011;4276;49.354;6.804;2023-03-23T02:08:35;1.90;;;1.80;;
8478;SDS011;4276;49.354;6.804;2023-03-23T02:11:08;1.98;;;1.60;;
8478;SDS011;4276;49.354;6.804;2023-03-23T02:13:37;1.95;;;1.85;;
8478;SDS011;4276;49.354;6.804;2023-03-23T02:16:08;2.70;;;1.90;;
8478;SDS011;4276;49.354;6.804;2023-03-23T02:27:14;1.70;;;1.60;;
8478;SDS011;4276;49.354;6.804;2023-03-23T02:29:46;2.10;;;1.77;;
8478;SDS011;4276;49.354;6.804;2023-03-23T02:35:06;2.30;;;1.48;;
8478;SDS011;4276;49.354;6.804;2023-03-23T02:37:37;1.80;;;1.70;;
8478;SDS011;4276;49.354;6.804;2023-03-23T02:42:33;1.80;;;1.70;;
8478;SDS011;4276;49.354;6.804;2023-03-23T02:45:05;1.70;;;1.60;;
8478;SDS011;4276;49.354;6.804;2023-03-23T02:47:32;1.60;;;1.50;;
8478;SDS011;4276;49.354;6.804;2023-03-23T02:50:00;1.73;;;1.60;;
8478;SDS011;4276;49.354;6.804;2023-03-23T02:52:27;1.65;;;1.55;;
8478;SDS011;4276;49.354;6.804;2023-03-23T02:54:55;2.50;;;1.85;;
8478;SDS011;4276;49.354;6.804;2023-03-23T02:57:22;1.77;;;1.67;;
8478;SDS011;4276;49.354;6.804;2023-03-23T02:59:48;1.90;;;1.80;;
8478;SDS011;4276;49.354;6.804;2023-03-23T03:02:14;2.55;;;2.00;;
8478;SDS011;4276;49.354;6.804;2023-03-23T03:04:46;2.20;;;2.10;;
8478;SDS011;4276;49.354;6.804;2023-03-23T03:07:28;2.28;;;2.08;;
8478;SDS011;4276;49.354;6.804;2023-03-23T03:10:02;1.70;;;1.60;;
8478;SDS011;4276;49.354;6.804;2023-03-23T03:12:32;2.10;;;1.70;;
8478;SDS011;4276;49.354;6.804;2023-03-23T03:15:02;2.38;;;1.75;;
8478;SDS011;4276;49.354;6.804;2023-03-23T03:17:33;3.35;;;2.30;;
8478;SDS011;4276;49.354;6.804;2023-03-23T03:20:02;2.47;;;2.03;;
8478;SDS011;4276;49.354;6.804;2023-03-23T03:22:32;1.85;;;1.75;;
8478;SDS011;4276;49.354;6.804;2023-03-23T03:24:58;1.85;;;1.70;;
8478;SDS011;4276;49.354;6.804;2023-03-23T03:27:24;1.70;;;1.60;;
8478;SDS011;4276;49.354;6.804;2023-03-23T03:29:53;2.00;;;1.63;;
8478;SDS011;4276;49.354;6.804;2023-03-23T03:32:24;2.10;;;1.90;;
8478;SDS011;4276;49.354;6.804;2023-03-23T03:34:55;2.33;;;2.20;;
8478;SDS011;4276;49.354;6.804;2023-03-23T03:37:23;2.30;;;2.10;;
8478;SDS011;4276;49.354;6.804;2023-03-23T03:39:48;2.90;;;2.13;;
8478;SDS011;4276;49.354;6.804;2023-03-23T03:42:14;2.83;;;2.33;;
8478;SDS011;4276;49.354;6.804;2023-03-23T03:44:40;2.13;;;2.03;;
8478;SDS011;4276;49.354;6.804;2023-03-23T03:47:05;2.35;;;2.15;;
8478;SDS011;4276;49.354;6.804;2023-03-23T03:49:31;3.10;;;2.10;;
8478;SDS011;4276;49.354;6.804;2023-03-23T03:51:56;2.72;;;2.28;;
8478;SDS011;4276;49.354;6.804;2023-03-23T03:54:21;2.47;;;2.00;;
8478;SDS011;4276;49.354;6.804;2023-03-23T03:56:47;2.88;;;2.45;;
8478;SDS011;4276;49.354;6.804;2023-03-23T03:59:12;2.45;;;2.25;;
8478;SDS011;4276;49.354;6.804;2023-03-23T04:01:38;2.60;;;2.40;;
8478;SDS011;4276;49.354;6.804;2023-03-23T04:04:04;2.42;;;2.20;;
8478;SDS011;4276;49.354;6.804;2023-03-23T04:06:32;2.40;;;2.17;;
8478;SDS011;4276;49.354;6.804;2023-03-23T04:09:01;2.50;;;2.20;;
8478;SDS011;4276;49.354;6.804;2023-03-23T04:11:30;2.60;;;2.40;;
8478;SDS011;4276;49.354;6.804;2023-03-23T04:13:56;2.95;;;2.65;;
8478;SDS011;4276;49.354;6.804;2023-03-23T04:16:21;2.50;;;2.30;;
8478;SDS011;4276;49.354;6.804;2023-03-23T04:18:47;2.92;;;2.72;;
8478;SDS011;4276;49.354;6.804;2023-03-23T04:21:13;3.38;;;2.42;;
8478;SDS011;4276;49.354;6.804;2023-03-23T04:23:39;3.42;;;2.80;;
8478;SDS011;4276;49.354;6.804;2023-03-23T04:26:05;2.80;;;2.20;;
8478;SDS011;4276;49.354;6.804;2023-03-23T04:28:31;2.75;;;2.55;;
8478;SDS011;4276;49.354;6.804;2023-03-23T04:30:58;2.78;;;2.58;;
8478;SDS011;4276;49.354;6.804;2023-03-23T04:33:25;2.78;;;2.53;;
8478;SDS011;4276;49.354;6.804;2023-03-23T04:35:53;3.50;;;2.70;;
8478;SDS011;4276;49.354;6.804;2023-03-23T04:38:20;2.78;;;2.58;;
8478;SDS011;4276;49.354;6.804;2023-03-23T04:40:46;3.30;;;3.00;;
8478;SDS011;4276;49.354;6.804;2023-03-23T04:43:13;4.70;;;2.95;;
8478;SDS011;4276;49.354;6.804;2023-03-23T04:45:39;3.15;;;2.85;;
8478;SDS011;4276;49.354;6.804;2023-03-23T04:48:10;4.60;;;2.80;;
8478;SDS011;4276;49.354;6.804;2023-03-23T04:50:36;3.47;;;2.65;;
8478;SDS011;4276;49.354;6.804;2023-03-23T04:53:02;3.20;;;2.90;;
8478;SDS011;4276;49.354;6.804;2023-03-23T04:55:31;3.00;;;2.65;;
8478;SDS011;4276;49.354;6.804;2023-03-23T04:58:01;3.40;;;2.55;;
8478;SDS011;4276;49.354;6.804;2023-03-23T05:00:30;3.42;;;3.13;;
8478;SDS011;4276;49.354;6.804;2023-03-23T05:02:57;3.20;;;2.70;;
8478;SDS011;4276;49.354;6.804;2023-03-23T05:05:24;3.08;;;2.70;;
8478;SDS011;4276;49.354;6.804;2023-03-23T05:07:50;3.30;;;3.00;;
8478;SDS011;4276;49.354;6.804;2023-03-23T05:10:16;3.95;;;2.80;;
8478;SDS011;4276;49.354;6.804;2023-03-23T05:12:42;2.90;;;2.70;;
8478;SDS011;4276;49.354;6.804;2023-03-23T05:15:08;4.40;;;3.03;;
8478;SDS011;4276;49.354;6.804;2023-03-23T05:17:35;4.43;;;2.95;;
8478;SDS011;4276;49.354;6.804;2023-03-23T05:20:01;3.50;;;2.97;;
8478;SDS011;4276;49.354;6.804;2023-03-23T05:22:34;5.35;;;3.17;;
8478;SDS011;4276;49.354;6.804;2023-03-23T05:25:01;4.57;;;2.88;;
8478;SDS011;4276;49.354;6.804;2023-03-23T05:27:30;2.95;;;2.75;;
8478;SDS011;4276;49.354;6.804;2023-03-23T05:29:57;3.10;;;2.78;;
8478;SDS011;4276;49.354;6.804;2023-03-23T05:32:24;2.78;;;2.58;;
8478;SDS011;4276;49.354;6.804;2023-03-23T05:34:57;2.83;;;2.58;;
8478;SDS011;4276;49.354;6.804;2023-03-23T05:37:24;3.00;;;2.55;;
8478;SDS011;4276;49.354;6.804;2023-03-23T05:39:50;3.00;;;2.35;;
8478;SDS011;4276;49.354;6.804;2023-03-23T05:42:23;2.88;;;2.60;;
8478;SDS011;4276;49.354;6.804;2023-03-23T05:44:50;3.05;;;2.78;;
8478;SDS011;4276;49.354;6.804;2023-03-23T05:47:15;3.65;;;2.40;;
8478;SDS011;4276;49.354;6.804;2023-03-23T05:49:41;2.70;;;2.50;;
8478;SDS011;4276;49.354;6.804;2023-03-23T05:52:06;3.15;;;2.50;;
8478;SDS011;4276;49.354;6.804;2023-03-23T05:54:32;2.67;;;2.47;;
8478;SDS011;4276;49.354;6.804;2023-03-23T05:56:59;2.70;;;2.50;;
8478;SDS011;4276;49.354;6.804;2023-03-23T05:59:24;2.65;;;2.45;;
8478;SDS011;4276;49.354;6.804;2023-03-23T06:01:50;3.40;;;2.70;;
8478;SDS011;4276;49.354;6.804;2023-03-23T06:04:16;2.53;;;2.33;;
8478;SDS011;4276;49.354;6.804;2023-03-23T06:06:42;2.78;;;2.17;;
8478;SDS011;4276;49.354;6.804;2023-03-23T06:09:08;2.67;;;2.47;;
8478;SDS011;4276;49.354;6.804;2023-03-23T06:11:34;2.50;;;2.30;;
8478;SDS011;4276;49.354;6.804;2023-03-23T06:14:00;2.22;;;2.03;;
8478;SDS011;4276;49.354;6.804;2023-03-23T06:16:26;2.42;;;2.25;;
8478;SDS011;4276;49.354;6.804;2023-03-23T06:18:51;2.30;;;2.10;;
8478;SDS011;4276;49.354;6.804;2023-03-23T06:21:17;2.00;;;1.70;;
8478;SDS011;4276;49.354;6.804;2023-03-23T06:23:44;3.45;;;2.03;;
8478;SDS011;4276;49.354;6.804;2023-03-23T06:26:10;2.63;;;2.05;;
8478;SDS011;4276;49.354;6.804;2023-03-23T06:28:37;4.43;;;2.38;;
8478;SDS011;4276;49.354;6.804;2023-03-23T06:31:03;2.13;;;2.03;;
8478;SDS011;4276;49.354;6.804;2023-03-23T06:33:31;2.45;;;2.25;;
8478;SDS011;4276;49.354;6.804;2023-03-23T06:35:59;2.38;;;2.17;;
8478;SDS011;4276;49.354;6.804;2023-03-23T06:38:24;2.30;;;2.10;;
8478;SDS011;4276;49.354;6.804;2023-03-23T06:40:54;2.42;;;2.08;;
8478;SDS011;4276;49.354;6.804;2023-03-23T06:43:20;2.42;;;2.22;;
8478;SDS011;4276;49.354;6.804;2023-03-23T06:45:46;2.35;;;2.15;;
8478;SDS011;4276;49.354;6.804;2023-03-23T06:48:11;2.85;;;2.28;;
8478;SDS011;4276;49.354;6.804;2023-03-23T06:50:37;2.20;;;2.10;;
8478;SDS011;4276;49.354;6.804;2023-03-23T06:53:02;2.50;;;2.30;;
8478;SDS011;4276;49.354;6.804;2023-03-23T06:55:30;2.03;;;1.88;;
8478;SDS011;4276;49.354;6.804;2023-03-23T06:57:56;2.63;;;2.10;;
8478;SDS011;4276;49.354;6.804;2023-03-23T07:00:24;2.53;;;2.30;;
8478;SDS011;4276;49.354;6.804;2023-03-23T07:02:50;2.10;;;2.00;;
8478;SDS011;4276;49.354;6.804;2023-03-23T07:05:15;2.22;;;2.00;;
8478;SDS011;4276;49.354;6.804;2023-03-23T07:07:41;2.28;;;2.00;;
8478;SDS011;4276;49.354;6.804;2023-03-23T07:10:07;2.65;;;2.35;;
8478;SDS011;4276;49.354;6.804;2023-03-23T07:12:36;1.95;;;1.80;;
8478;SDS011;4276;49.354;6.804;2023-03-23T07:15:02;2.22;;;2.03;;
8478;SDS011;4276;49.354;6.804;2023-03-23T07:17:28;3.40;;;2.10;;
8478;SDS011;4276;49.354;6.804;2023-03-23T07:19:54;3.00;;;2.20;;
8478;SDS011;4276;49.354;6.804;2023-03-23T07:22:19;2.13;;;2.00;;
8478;SDS011;4276;49.354;6.804;2023-03-23T07:24:45;2.88;;;2.00;;
8478;SDS011;4276;49.354;6.804;2023-03-23T07:27:10;2.97;;;2.45;;
8478;SDS011;4276;49.354;6.804;2023-03-23T07:29:36;3.13;;;2.50;;
8478;SDS011;4276;49.354;6.804;2023-03-23T07:32:03;2.40;;;2.20;;
8478;SDS011;4276;49.354;6.804;2023-03-23T07:34:30;2.58;;;2.20;;
8478;SDS011;4276;49.354;6.804;2023-03-23T07:36:55;2.45;;;2.00;;
8478;SDS011;4276;49.354;6.804;2023-03-23T07:39:20;2.58;;;2.00;;
8478;SDS011;4276;49.354;6.804;2023-03-23T07:41:48;2.35;;;2.15;;
8478;SDS011;4276;49.354;6.804;2023-03-23T07:44:13;2.10;;;1.90;;
8478;SDS011;4276;49.354;6.804;2023-03-23T07:46:39;2.15;;;1.83;;
8478;SDS011;4276;49.354;6.804;2023-03-23T07:49:05;2.50;;;2.30;;
8478;SDS011;4276;49.354;6.804;2023-03-23T07:51:31;2.40;;;2.20;;
8478;SDS011;4276;49.354;6.804;2023-03-23T07:53:57;2.50;;;2.30;;
8478;SDS011;4276;49.354;6.804;2023-03-23T07:56:23;1.90;;;1.80;;
8478;SDS011;4276;49.354;6.804;2023-03-23T07:58:48;2.33;;;2.05;;
8478;SDS011;4276;49.354;6.804;2023-03-23T08:01:14;2.25;;;2.05;;
8478;SDS011;4276;49.354;6.804;2023-03-23T08:03:40;2.33;;;2.15;;
8478;SDS011;4276;49.354;6.804;2023-03-23T08:06:07;1.98;;;1.85;;
8478;SDS011;4276;49.354;6.804;2023-03-23T08:08:33;2.95;;;2.20;;
8478;SDS011;4276;49.354;6.804;2023-03-23T08:10:59;2.85;;;2.55;;
8478;SDS011;4276;49.354;6.804;2023-03-23T08:13:24;2.47;;;2.35;;
8478;SDS011;4276;49.354;6.804;2023-03-23T08:15:50;2.50;;;2.30;;
8478;SDS011;4276;49.354;6.804;2023-03-23T08:18:16;3.15;;;2.30;;
8478;SDS011;4276;49.354;6.804;2023-03-23T08:20:42;2.45;;;2.22;;
8478;SDS011;4276;49.354;6.804;2023-03-23T08:23:09;2.00;;;1.90;;
8478;SDS011;4276;49.354;6.804;2023-03-23T08:25:35;2.40;;;2.08;;
8478;SDS011;4276;49.354;6.804;2023-03-23T08:28:01;2.50;;;2.30;;
8478;SDS011;4276;49.354;6.804;2023-03-23T08:30:26;2.58;;;2.20;;
8478;SDS011;4276;49.354;6.804;2023-03-23T08:32:54;3.42;;;2.90;;
8478;SDS011;4276;49.354;6.804;2023-03-23T08:35:20;3.10;;;2.80;;
8478;SDS011;4276;49.354;6.804;2023-03-23T08:37:45;3.15;;;2.47;;
8478;SDS011;4276;49.354;6.804;2023-03-23T08:40:13;2.58;;;2.25;;
8478;SDS011;4276;49.354;6.804;2023-03-23T08:42:41;2.10;;;2.00;;
8478;SDS011;4276;49.354;6.804;2023-03-23T08:45:08;2.60;;;2.20;;
8478;SDS011;4276;49.354;6.804;2023-03-23T08:47:35;2.05;;;1.95;;
8478;SDS011;4276;49.354;6.804;2023-03-23T08:50:02;4.40;;;4.10;;
8478;SDS011;4276;49.354;6.804;2023-03-23T08:52:28;3.20;;;2.80;;
8478;SDS011;4276;49.354;6.804;2023-03-23T08:54:54;2.38;;;2.25;;
8478;SDS011;4276;49.354;6.804;2023-03-23T08:57:20;2.95;;;2.65;;
8478;SDS011;4276;49.354;6.804;2023-03-23T08:59:45;3.17;;;2.08;;
8478;SDS011;4276;49.354;6.804;2023-03-23T09:02:11;2.35;;;2.15;;
8478;SDS011;4276;49.354;6.804;2023-03-23T09:04:37;2.20;;;2.10;;
8478;SDS011;4276;49.354;6.804;2023-03-23T09:07:04;2.08;;;1.98;;
8478;SDS011;4276;49.354;6.804;2023-03-23T09:09:29;2.28;;;2.03;;
8478;SDS011;4276;49.354;6.804;2023-03-23T09:11:55;2.33;;;2.13;;
8478;SDS011;4276;49.354;6.804;2023-03-23T09:14:20;2.20;;;2.00;;
8478;SDS011;4276;49.354;6.804;2023-03-23T09:16:45;1.70;;;1.60;;
8478;SDS011;4276;49.354;6.804;2023-03-23T09:19:11;2.63;;;1.92;;
8478;SDS011;4276;49.354;6.804;2023-03-23T09:21:37;2.20;;;2.10;;
8478;SDS011;4276;49.354;6.804;2023-03-23T09:24:03;1.98;;;1.77;;
8478;SDS011;4276;49.354;6.804;2023-03-23T09:26:29;2.38;;;2.17;;
8478;SDS011;4276;49.354;6.804;2023-03-23T09:28:56;1.83;;;1.73;;
8478;SDS011;4276;49.354;6.804;2023-03-23T09:31:21;2.28;;;1.60;;
8478;SDS011;4276;49.354;6.804;2023-03-23T09:33:47;1.67;;;1.58;;
8478;SDS011;4276;49.354;6.804;2023-03-23T09:36:17;2.05;;;1.88;;
8478;SDS011;4276;49.354;6.804;2023-03-23T09:38:43;2.72;;;2.50;;
8478;SDS011;4276;49.354;6.804;2023-03-23T09:52:00;2.92;;;2.03;;
8478;SDS011;4276;49.354;6.804;2023-03-23T09:54:30;2.13;;;2.03;;
8478;SDS011;4276;49.354;6.804;2023-03-23T09:57:00;2.17;;;1.98;;
8478;SDS011;4276;49.354;6.804;2023-03-23T09:59:28;2.17;;;1.90;;
8478;SDS011;4276;49.354;6.804;2023-03-23T10:01:57;2.67;;;2.20;;
8478;SDS011;4276;49.354;6.804;2023-03-23T10:04:35;2.13;;;1.98;;
8478;SDS011;4276;49.354;6.804;2023-03-23T10:07:20;2.22;;;2.05;;
8478;SDS011;4276;49.354;6.804;2023-03-23T10:09:52;3.03;;;2.53;;
8478;SDS011;4276;49.354;6.804;2023-03-23T10:17:50;2.40;;;2.20;;
8478;SDS011;4276;49.354;6.804;2023-03-23T10:25:22;2.92;;;2.00;;
8478;SDS011;4276;49.354;6.804;2023-03-23T10:27:52;2.50;;;2.30;;
8478;SDS011;4276;49.354;6.804;2023-03-23T10:30:45;1.92;;;1.83;;
8478;SDS011;4276;49.354;6.804;2023-03-23T10:33:20;2.05;;;1.88;;
8478;SDS011;4276;49.354;6.804;2023-03-23T10:36:27;1.90;;;1.80;;
8478;SDS011;4276;49.354;6.804;2023-03-23T10:39:04;1.85;;;1.75;;
8478;SDS011;4276;49.354;6.804;2023-03-23T10:41:34;1.83;;;1.73;;
8478;SDS011;4276;49.354;6.804;2023-03-23T10:44:00;1.90;;;1.60;;
8478;SDS011;4276;49.354;6.804;2023-03-23T10:46:36;2.33;;;1.77;;
8478;SDS011;4276;49.354;6.804;2023-03-23T10:49:06;1.60;;;1.50;;
8478;SDS011;4276;49.354;6.804;2023-03-23T10:51:36;1.52;;;1.42;;
8478;SDS011;4276;49.354;6.804;2023-03-23T10:54:03;2.00;;;1.90;;
8478;SDS011;4276;49.354;6.804;2023-03-23T10:59:12;2.22;;;1.60;;
8478;SDS011;4276;49.354;6.804;2023-03-23T11:01:41;1.70;;;1.60;;
8478;SDS011;4276;49.354;6.804;2023-03-23T11:04:12;1.60;;;1.50;;
8478;SDS011;4276;49.354;6.804;2023-03-23T11:06:42;1.60;;;1.50;;
8478;SDS011;4276;49.354;6.804;2023-03-23T11:09:11;1.80;;;1.70;;
8478;SDS011;4276;49.354;6.804;2023-03-23T11:11:39;4.35;;;3.95;;
8478;SDS011;4276;49.354;6.804;2023-03-23T11:14:41;5.25;;;3.50;;
8478;SDS011;4276;49.354;6.804;2023-03-23T11:17:04;1.55;;;1.45;;
8478;SDS011;4276;49.354;6.804;2023-03-23T11:19:44;1.98;;;1.42;;
8478;SDS011;4276;49.354;6.804;2023-03-23T11:22:15;1.73;;;1.58;;
8478;SDS011;4276;49.354;6.804;2023-03-23T11:24:46;1.60;;;1.50;;
8478;SDS011;4276;49.354;6.804;2023-03-23T11:27:13;2.10;;;1.90;;
8478;SDS011;4276;49.354;6.804;2023-03-23T11:29:48;2.00;;;1.80;;
8478;SDS011;4276;49.354;6.804;2023-03-23T11:32:15;1.60;;;1.45;;
8478;SDS011;4276;49.354;6.804;2023-03-23T11:34:46;1.60;;;1.50;;
8478;SDS011;4276;49.354;6.804;2023-03-23T11:37:15;1.60;;;1.50;;
8478;SDS011;4276;49.354;6.804;2023-03-23T11:45:07;1.80;;;1.70;;
8478;SDS011;4276;49.354;6.804;2023-03-23T11:47:41;1.67;;;1.58;;
8478;SDS011;4276;49.354;6.804;2023-03-23T11:50:35;1.92;;;1.73;;
8478;SDS011;4276;49.354;6.804;2023-03-23T11:58:52;2.65;;;1.77;;
8478;SDS011;4276;49.354;6.804;2023-03-23T12:03:57;2.28;;;2.10;;
8478;SDS011;4276;49.354;6.804;2023-03-23T12:09:14;1.50;;;1.40;;
8478;SDS011;4276;49.354;6.804;2023-03-23T12:17:17;1.90;;;1.70;;
8478;SDS011;4276;49.354;6.804;2023-03-23T12:22:24;1.65;;;1.52;;
8478;SDS011;4276;49.354;6.804;2023-03-23T12:28:04;3.92;;;3.10;;
8478;SDS011;4276;49.354;6.804;2023-03-23T12:30:42;2.00;;;1.90;;
8478;SDS011;4276;49.354;6.804;2023-03-23T12:44:07;1.83;;;1.73;;
8478;SDS011;4276;49.354;6.804;2023-03-23T12:57:42;1.35;;;1.25;;
8478;SDS011;4276;49.354;6.804;2023-03-23T13:03:24;3.10;;;2.17;;
8478;SDS011;4276;49.354;6.804;2023-03-23T13:05:57;1.55;;;1.45;;
8478;SDS011;4276;49.354;6.804;2023-03-23T13:08:25;1.65;;;1.50;;
8478;SDS011;4276;49.354;6.804;2023-03-23T13:10:56;2.50;;;2.38;;
8478;SDS011;4276;49.354;6.804;2023-03-23T13:13:39;2.83;;;2.63;;
8478;SDS011;4276;49.354;6.804;2023-03-23T13:19:01;1.98;;;1.70;;
8478;SDS011;4276;49.354;6.804;2023-03-23T13:21:31;1.65;;;1.55;;
8478;SDS011;4276;49.354;6.804;2023-03-23T13:23:59;2.22;;;2.03;;
8478;SDS011;4276;49.354;6.804;2023-03-23T13:26:28;1.90;;;1.70;;
8478;SDS011;4276;49.354;6.804;2023-03-23T13:29:05;3.70;;;3.40;;
8478;SDS011;4276;49.354;6.804;2023-03-23T13:31:37;2.60;;;2.40;;
8478;SDS011;4276;49.354;6.804;2023-03-23T13:36:55;1.80;;;1.70;;
8478;SDS011;4276;49.354;6.804;2023-03-23T13:44:55;7.35;;;6.55;;
8478;SDS011;4276;49.354;6.804;2023-03-23T13:47:37;4.60;;;3.42;;
8478;SDS011;4276;49.354;6.804;2023-03-23T14:03:09;2.53;;;2.10;;
8478;SDS011;4276;49.354;6.804;2023-03-23T14:08:21;1.90;;;1.80;;
8478;SDS011;4276;49.354;6.804;2023-03-23T14:13:31;1.55;;;1.45;;
8478;SDS011;4276;49.354;6.804;2023-03-23T14:16:03;1.80;;;1.70;;
8478;SDS011;4276;49.354;6.804;2023-03-23T14:18:31;2.38;;;2.17;;
8478;SDS011;4276;49.354;6.804;2023-03-23T14:21:04;2.08;;;1.90;;
8478;SDS011;4276;49.354;6.804;2023-03-23T14:23:32;1.73;;;1.63;;
8478;SDS011;4276;49.354;6.804;2023-03-23T14:26:00;1.60;;;1.50;;
8478;SDS011;4276;49.354;6.804;2023-03-23T14:28:39;2.15;;;1.75;;
8478;SDS011;4276;49.354;6.804;2023-03-23T14:31:12;1.48;;;1.48;;
8478;SDS011;4276;49.354;6.804;2023-03-23T14:33:41;1.60;;;1.50;;
8478;SDS011;4276;49.354;6.804;2023-03-23T14:36:07;3.33;;;2.08;;
8478;SDS011;4276;49.354;6.804;2023-03-23T14:38:32;1.73;;;1.63;;
8478;SDS011;4276;49.354;6.804;2023-03-23T14:41:02;2.17;;;1.98;;
8478;SDS011;4276;49.354;6.804;2023-03-23T14:43:28;1.67;;;1.58;;
8478;SDS011;4276;49.354;6.804;2023-03-23T14:45:55;1.80;;;1.70;;
8478;SDS011;4276;49.354;6.804;2023-03-23T14:48:23;1.77;;;1.67;;
8478;SDS011;4276;49.354;6.804;2023-03-23T14:50:50;1.58;;;1.48;;
8478;SDS011;4276;49.354;6.804;2023-03-23T14:53:23;1.98;;;1.73;;
8478;SDS011;4276;49.354;6.804;2023-03-23T14:55:53;1.40;;;1.23;;
8478;SDS011;4276;49.354;6.804;2023-03-23T14:58:22;1.58;;;1.48;;
8478;SDS011;4276;49.354;6.804;2023-03-23T15:01:08;2.17;;;1.50;;
8478;SDS011;4276;49.354;6.804;2023-03-23T15:03:40;1.90;;;1.80;;
8478;SDS011;4276;49.354;6.804;2023-03-23T15:06:11;3.03;;;2.05;;
8478;SDS011;4276;49.354;6.804;2023-03-23T15:08:39;1.70;;;1.60;;
8478;SDS011;4276;49.354;6.804;2023-03-23T15:11:12;1.67;;;1.58;;
8478;SDS011;4276;49.354;6.804;2023-03-23T15:13:47;1.95;;;1.85;;
8478;SDS011;4276;49.354;6.804;2023-03-23T15:18:54;2.75;;;1.85;;
8478;SDS011;4276;49.354;6.804;2023-03-23T15:21:22;1.90;;;1.80;;
8478;SDS011;4276;49.354;6.804;2023-03-23T15:23:50;1.63;;;1.52;;
8478;SDS011;4276;49.354;6.804;2023-03-23T15:31:32;1.88;;;1.70;;
8478;SDS011;4276;49.354;6.804;2023-03-23T15:34:01;1.80;;;1.70;;
8478;SDS011;4276;49.354;6.804;2023-03-23T15:36:30;1.98;;;1.88;;
8478;SDS011;4276;49.354;6.804;2023-03-23T15:38:57;1.55;;;1.45;;
8478;SDS011;4276;49.354;6.804;2023-03-23T15:41:25;3.38;;;2.20;;
8478;SDS011;4276;49.354;6.804;2023-03-23T15:43:52;2.35;;;1.60;;
8478;SDS011;4276;49.354;6.804;2023-03-23T15:46:27;1.90;;;1.70;;
8478;SDS011;4276;49.354;6.804;2023-03-23T15:48:54;2.10;;;1.70;;
8478;SDS011;4276;49.354;6.804;2023-03-23T15:51:32;2.20;;;1.92;;
8478;SDS011;4276;49.354;6.804;2023-03-23T15:53:58;2.63;;;2.28;;
8478;SDS011;4276;49.354;6.804;2023-03-23T15:56:25;2.33;;;2.22;;
8478;SDS011;4276;49.354;6.804;2023-03-23T15:58:51;1.67;;;1.58;;
8478;SDS011;4276;49.354;6.804;2023-03-23T16:01:21;1.77;;;1.67;;
8478;SDS011;4276;49.354;6.804;2023-03-23T16:03:52;2.00;;;1.90;;
8478;SDS011;4276;49.354;6.804;2023-03-23T16:06:22;1.73;;;1.63;;
8478;SDS011;4276;49.354;6.804;2023-03-23T16:08:53;1.70;;;1.60;;
8478;SDS011;4276;49.354;6.804;2023-03-23T16:11:21;1.60;;;1.50;;
8478;SDS011;4276;49.354;6.804;2023-03-23T16:13:49;1.67;;;1.52;;
8478;SDS011;4276;49.354;6.804;2023-03-23T16:16:31;2.65;;;2.45;;
8478;SDS011;4276;49.354;6.804;2023-03-23T16:19:00;2.33;;;2.05;;
8478;SDS011;4276;49.354;6.804;2023-03-23T16:21:27;2.40;;;2.20;;
8478;SDS011;4276;49.354;6.804;2023-03-23T16:23:53;2.05;;;1.80;;
8478;SDS011;4276;49.354;6.804;2023-03-23T16:26:21;2.35;;;2.10;;
8478;SDS011;4276;49.354;6.804;2023-03-23T16:28:48;2.10;;;2.00;;
8478;SDS011;4276;49.354;6.804;2023-03-23T16:31:15;2.45;;;2.00;;
8478;SDS011;4276;49.354;6.804;2023-03-23T16:33:42;2.38;;;2.25;;
8478;SDS011;4276;49.354;6.804;2023-03-23T16:36:10;3.63;;;3.33;;
8478;SDS011;4276;49.354;6.804;2023-03-23T16:38:38;9.23;;;8.23;;
8478;SDS011;4276;49.354;6.804;2023-03-23T16:41:15;7.50;;;6.80;;
8478;SDS011;4276;49.354;6.804;2023-03-23T16:43:41;3.75;;;3.45;;
8478;SDS011;4276;49.354;6.804;2023-03-23T16:46:08;2.30;;;2.05;;
8478;SDS011;4276;49.354;6.804;2023-03-23T16:48:36;2.10;;;1.88;;
8478;SDS011;4276;49.354;6.804;2023-03-23T16:51:03;2.42;;;1.90;;
8478;SDS011;4276;49.354;6.804;2023-03-23T16:53:29;2.50;;;2.30;;
8478;SDS011;4276;49.354;6.804;2023-03-23T16:55:57;1.90;;;1.80;;
8478;SDS011;4276;49.354;6.804;2023-03-23T16:58:24;2.42;;;2.22;;
8478;SDS011;4276;49.354;6.804;2023-03-23T17:00:50;2.92;;;2.60;;
8478;SDS011;4276;49.354;6.804;2023-03-23T17:03:17;1.98;;;1.88;;
8478;SDS011;4276;49.354;6.804;2023-03-23T17:05:46;2.22;;;2.08;;
8478;SDS011;4276;49.354;6.804;2023-03-23T17:08:16;2.05;;;1.83;;
8478;SDS011;4276;49.354;6.804;2023-03-23T17:10:44;2.45;;;2.20;;
8478;SDS011;4276;49.354;6.804;2023-03-23T17:13:11;2.40;;;2.20;;
8478;SDS011;4276;49.354;6.804;2023-03-23T17:15:39;2.05;;;1.88;;
8478;SDS011;4276;49.354;6.804;2023-03-23T17:18:10;3.13;;;1.70;;
8478;SDS011;4276;49.354;6.804;2023-03-23T17:20:36;2.00;;;1.90;;
8478;SDS011;4276;49.354;6.804;2023-03-23T17:23:03;2.13;;;1.90;;
8478;SDS011;4276;49.354;6.804;2023-03-23T17:25:29;2.30;;;2.10;;
8478;SDS011;4276;49.354;6.804;2023-03-23T17:27:57;2.20;;;2.00;;
8478;SDS011;4276;49.354;6.804;2023-03-23T17:30:32;1.80;;;1.70;;
8478;SDS011;4276;49.354;6.804;2023-03-23T17:32:58;1.77;;;1.67;;